sensor_id;sensor_type;location;lat;lon;timestamp;pressure;altitude;pressure_sealevel;temperature;humidity
35248;BME280;21380;52.194;20.520;2023-07-29T00:00:43;99736.97;;;22.61;72.17
35248;BME280;21380;52.194;20.520;2023-07-29T00:03:25;99754.44;;;22.65;72.15
35248;BME280;21380;52.194;20.520;2023-07-29T00:05:51;99751.06;;;22.58;72.14
35248;BME280;21380;52.194;20.520;2023-07-29T00:08:17;99755.34;;;22.64;72.09
35248;BME280;21380;52.194;20.520;2023-07-29T00:10:43;99762.34;;;22.63;72.43
35248;BME280;21380;52.194;20.520;2023-07-29T00:13:10;99751.97;;;22.56;72.29
35248;BME280;21380;52.194;20.520;2023-07-29T00:15:36;99764.09;;;22.63;72.40
35248;BME280;21380;52.194;20.520;2023-07-29T00:18:02;99752.00;;;22.54;72.22
35248;BME280;21380;52.194;20.520;2023-07-29T00:20:27;99772.00;;;22.63;72.17
35248;BME280;21380;52.194;20.520;2023-07-29T00:22:54;99764.19;;;22.58;71.97
35248;BME280;21380;52.194;20.520;2023-07-29T00:25:21;99760.75;;;22.55;72.13
35248;BME280;21380;52.194;20.520;2023-07-29T00:27:47;99767.78;;;22.54;72.17
35248;BME280;21380;52.194;20.520;2023-07-29T00:30:13;99772.94;;;22.60;71.95
35248;BME280;21380;52.194;20.520;2023-07-29T00:32:39;99768.59;;;22.58;71.89
35248;BME280;21380;52.194;20.520;2023-07-29T00:35:05;99767.72;;;22.59;72.22
35248;BME280;21380;52.194;20.520;2023-07-29T00:37:31;99751.19;;;22.50;72.08
35248;BME280;21380;52.194;20.520;2023-07-29T00:39:57;99761.69;;;22.54;71.85
35248;BME280;21380;52.194;20.520;2023-07-29T00:42:24;99759.09;;;22.50;71.95
35248;BME280;21380;52.194;20.520;2023-07-29T00:44:50;99768.59;;;22.58;72.01
35248;BME280;21380;52.194;20.520;2023-07-29T00:47:16;99769.44;;;22.58;71.72
35248;BME280;21380;52.194;20.520;2023-07-29T00:49:45;99770.38;;;22.56;72.12
35248;BME280;21380;52.194;20.520;2023-07-29T00:52:11;99776.47;;;22.58;72.25
35248;BME280;21380;52.194;20.520;2023-07-29T00:54:39;99766.94;;;22.52;72.01
35248;BME280;21380;52.194;20.520;2023-07-29T00:57:06;99776.53;;;22.56;71.73
35248;BME280;21380;52.194;20.520;2023-07-29T00:59:35;99763.50;;;22.48;72.08
35248;BME280;21380;52.194;20.520;2023-07-29T01:02:01;99779.16;;;22.55;71.99
35248;BME280;21380;52.194;20.520;2023-07-29T01:04:27;99787.03;;;22.56;72.14
35248;BME280;21380;52.194;20.520;2023-07-29T01:07:01;99780.06;;;22.54;72.10
35248;BME280;21380;52.194;20.520;2023-07-29T01:12:17;99781.78;;;22.55;72.16
35248;BME280;21380;52.194;20.520;2023-07-29T01:15:02;99789.66;;;22.55;72.12
35248;BME280;21380;52.194;20.520;2023-07-29T01:17:56;99781.78;;;22.55;71.76
35248;BME280;21380;52.194;20.520;2023-07-29T01:20:25;99785.38;;;22.50;72.03
35248;BME280;21380;52.194;20.520;2023-07-29T01:22:52;99789.69;;;22.53;71.94
35248;BME280;21380;52.194;20.520;2023-07-29T01:25:18;99780.13;;;22.50;71.63
35248;BME280;21380;52.194;20.520;2023-07-29T01:27:45;99769.69;;;22.46;71.92
35248;BME280;21380;52.194;20.520;2023-07-29T01:30:12;99782.81;;;22.47;72.26
35248;BME280;21380;52.194;20.520;2023-07-29T01:38:01;99786.25;;;22.49;71.73
35248;BME280;21380;52.194;20.520;2023-07-29T01:40:28;99781.00;;;22.51;72.01
35248;BME280;21380;52.194;20.520;2023-07-29T01:42:54;99781.00;;;22.51;71.95
35248;BME280;21380;52.194;20.520;2023-07-29T01:45:24;99794.13;;;22.51;71.66
35248;BME280;21380;52.194;20.520;2023-07-29T01:47:51;99793.25;;;22.50;71.92
35248;BME280;21380;52.194;20.520;2023-07-29T01:50:17;99789.78;;;22.50;71.97
35248;BME280;21380;52.194;20.520;2023-07-29T01:52:43;99799.41;;;22.49;71.88
35248;BME280;21380;52.194;20.520;2023-07-29T01:55:09;99798.53;;;22.49;71.87
35248;BME280;21380;52.194;20.520;2023-07-29T01:57:35;99798.59;;;22.47;71.62
35248;BME280;21380;52.194;20.520;2023-07-29T02:00:02;99798.53;;;22.49;72.14
35248;BME280;21380;52.194;20.520;2023-07-29T02:02:29;99802.13;;;22.45;71.70
35248;BME280;21380;52.194;20.520;2023-07-29T02:04:55;99799.44;;;22.48;71.86
35248;BME280;21380;52.194;20.520;2023-07-29T02:07:21;99806.47;;;22.47;71.77
35248;BME280;21380;52.194;20.520;2023-07-29T02:09:47;99791.69;;;22.40;71.58
35248;BME280;21380;52.194;20.520;2023-07-29T02:12:13;99803.84;;;22.47;71.98
35248;BME280;21380;52.194;20.520;2023-07-29T02:14:39;99814.34;;;22.47;72.06
35248;BME280;21380;52.194;20.520;2023-07-29T02:17:04;99803.06;;;22.41;71.85
35248;BME280;21380;52.194;20.520;2023-07-29T02:19:30;99818.78;;;22.44;71.75
35248;BME280;21380;52.194;20.520;2023-07-29T02:21:56;99821.47;;;22.42;71.82
35248;BME280;21380;52.194;20.520;2023-07-29T02:24:22;99825.75;;;22.46;71.57
35248;BME280;21380;52.194;20.520;2023-07-29T02:26:48;99819.72;;;22.40;71.99
35248;BME280;21380;52.194;20.520;2023-07-29T02:29:14;99828.41;;;22.45;71.73
35248;BME280;21380;52.194;20.520;2023-07-29T02:31:39;99820.66;;;22.37;72.02
35248;BME280;21380;52.194;20.520;2023-07-29T02:34:05;99832.75;;;22.46;71.56
35248;BME280;21380;52.194;20.520;2023-07-29T02:36:31;99811.03;;;22.34;71.89
35248;BME280;21380;52.194;20.520;2023-07-29T02:38:57;99837.16;;;22.45;71.85
35248;BME280;21380;52.194;20.520;2023-07-29T02:41:23;99837.22;;;22.42;71.79
35248;BME280;21380;52.194;20.520;2023-07-29T02:43:49;99845.94;;;22.44;71.92
35248;BME280;21380;52.194;20.520;2023-07-29T02:46:16;99839.81;;;22.44;71.83
35248;BME280;21380;52.194;20.520;2023-07-29T02:48:42;99828.53;;;22.35;71.74
35248;BME280;21380;52.194;20.520;2023-07-29T02:51:08;99818.97;;;22.31;71.42
35248;BME280;21380;52.194;20.520;2023-07-29T02:53:34;99843.28;;;22.44;71.48
35248;BME280;21380;52.194;20.520;2023-07-29T02:56:03;99842.44;;;22.44;71.94
35248;BME280;21380;52.194;20.520;2023-07-29T02:58:29;99821.63;;;22.30;71.92
35248;BME280;21380;52.194;20.520;2023-07-29T03:01:02;99850.31;;;22.44;71.83
35248;BME280;21380;52.194;20.520;2023-07-29T03:03:29;99850.38;;;22.42;72.02
35248;BME280;21380;52.194;20.520;2023-07-29T03:06:02;99844.19;;;22.43;71.63
35248;BME280;21380;52.194;20.520;2023-07-29T03:08:29;99841.66;;;22.37;71.57
35248;BME280;21380;52.194;20.520;2023-07-29T03:10:56;99848.63;;;22.40;71.89
35248;BME280;21380;52.194;20.520;2023-07-29T03:13:22;99846.88;;;22.40;71.88
35248;BME280;21380;52.194;20.520;2023-07-29T03:15:48;99844.28;;;22.37;71.66
35248;BME280;21380;52.194;20.520;2023-07-29T03:18:15;99848.63;;;22.40;71.81
35248;BME280;21380;52.194;20.520;2023-07-29T03:20:41;99851.28;;;22.37;71.65
35248;BME280;21380;52.194;20.520;2023-07-29T03:23:07;99859.13;;;22.41;71.53
35248;BME280;21380;52.194;20.520;2023-07-29T03:25:32;99846.91;;;22.35;71.73
35248;BME280;21380;52.194;20.520;2023-07-29T03:27:59;99856.50;;;22.41;71.54
35248;BME280;21380;52.194;20.520;2023-07-29T03:30:24;99851.25;;;22.40;71.77
35248;BME280;21380;52.194;20.520;2023-07-29T03:32:50;99856.56;;;22.35;71.60
35248;BME280;21380;52.194;20.520;2023-07-29T03:35:16;99861.75;;;22.40;71.45
35248;BME280;21380;52.194;20.520;2023-07-29T03:37:42;99846.09;;;22.32;71.72
35248;BME280;21380;52.194;20.520;2023-07-29T03:40:08;99855.69;;;22.36;71.51
35248;BME280;21380;52.194;20.520;2023-07-29T03:42:37;99853.06;;;22.34;71.73
35248;BME280;21380;52.194;20.520;2023-07-29T03:45:03;99875.81;;;22.39;71.70
35248;BME280;21380;52.194;20.520;2023-07-29T03:47:29;99866.16;;;22.39;71.84
35248;BME280;21380;52.194;20.520;2023-07-29T03:49:55;99858.31;;;22.38;71.64
35248;BME280;21380;52.194;20.520;2023-07-29T03:52:21;99872.31;;;22.38;71.71
35248;BME280;21380;52.194;20.520;2023-07-29T03:54:46;99867.97;;;22.34;71.36
35248;BME280;21380;52.194;20.520;2023-07-29T03:57:12;99872.31;;;22.38;71.69
35248;BME280;21380;52.194;20.520;2023-07-29T03:59:38;99863.66;;;22.31;71.55
35248;BME280;21380;52.194;20.520;2023-07-29T04:02:04;99881.97;;;22.38;71.76
35248;BME280;21380;52.194;20.520;2023-07-29T04:04:30;99880.19;;;22.38;71.41
35248;BME280;21380;52.194;20.520;2023-07-29T04:06:56;99875.00;;;22.32;71.61
35248;BME280;21380;52.194;20.520;2023-07-29T04:09:22;99893.34;;;22.38;71.45
35248;BME280;21380;52.194;20.520;2023-07-29T04:11:48;99870.75;;;22.26;71.37
35248;BME280;21380;52.194;20.520;2023-07-29T04:14:14;99887.22;;;22.36;71.58
35248;BME280;21380;52.194;20.520;2023-07-29T04:16:41;99900.34;;;22.36;71.68
35248;BME280;21380;52.194;20.520;2023-07-29T04:19:06;99888.06;;;22.37;71.36
35248;BME280;21380;52.194;20.520;2023-07-29T04:21:32;99899.47;;;22.37;71.19
35248;BME280;21380;52.194;20.520;2023-07-29T04:23:58;99903.00;;;22.36;71.59
35248;BME280;21380;52.194;20.520;2023-07-29T04:26:24;99896.91;;;22.31;71.57
35248;BME280;21380;52.194;20.520;2023-07-29T04:28:49;99897.84;;;22.28;71.57
35248;BME280;21380;52.194;20.520;2023-07-29T04:31:15;99908.25;;;22.36;71.61
35248;BME280;21380;52.194;20.520;2023-07-29T04:33:41;99898.75;;;22.27;71.23
35248;BME280;21380;52.194;20.520;2023-07-29T04:36:07;99915.25;;;22.35;71.17
35248;BME280;21380;52.194;20.520;2023-07-29T04:38:33;99918.81;;;22.31;71.39
35248;BME280;21380;52.194;20.520;2023-07-29T04:40:59;99906.59;;;22.29;71.07
35248;BME280;21380;52.194;20.520;2023-07-29T04:43:31;99918.75;;;22.36;71.50
35248;BME280;21380;52.194;20.520;2023-07-29T04:45:57;99916.13;;;22.34;71.06
35248;BME280;21380;52.194;20.520;2023-07-29T04:48:23;99901.38;;;22.26;71.36
35248;BME280;21380;52.194;20.520;2023-07-29T04:50:49;99902.28;;;22.25;71.16
35248;BME280;21380;52.194;20.520;2023-07-29T04:53:15;99921.38;;;22.34;71.14
35248;BME280;21380;52.194;20.520;2023-07-29T04:55:42;99924.88;;;22.37;71.17
35248;BME280;21380;52.194;20.520;2023-07-29T04:58:08;99925.78;;;22.34;71.01
35248;BME280;21380;52.194;20.520;2023-07-29T05:00:34;99911.06;;;22.24;71.16
35248;BME280;21380;52.194;20.520;2023-07-29T05:03:00;99924.00;;;22.34;71.04
35248;BME280;21380;52.194;20.520;2023-07-29T05:05:27;99925.75;;;22.37;71.21
35248;BME280;21380;52.194;20.520;2023-07-29T05:07:52;99921.44;;;22.31;71.06
35248;BME280;21380;52.194;20.520;2023-07-29T05:10:18;99923.19;;;22.31;71.11
35248;BME280;21380;52.194;20.520;2023-07-29T05:12:44;99924.03;;;22.33;71.36
35248;BME280;21380;52.194;20.520;2023-07-29T05:15:11;99920.56;;;22.31;71.24
35248;BME280;21380;52.194;20.520;2023-07-29T05:17:36;99935.38;;;22.38;71.11
35248;BME280;21380;52.194;20.520;2023-07-29T05:20:02;99938.00;;;22.38;71.34
35248;BME280;21380;52.194;20.520;2023-07-29T05:22:28;99925.78;;;22.34;71.36
35248;BME280;21380;52.194;20.520;2023-07-29T05:24:54;99940.59;;;22.40;71.34
35248;BME280;21380;52.194;20.520;2023-07-29T05:27:20;99927.53;;;22.35;71.26
35248;BME280;21380;52.194;20.520;2023-07-29T05:29:46;99932.75;;;22.37;71.37
35248;BME280;21380;52.194;20.520;2023-07-29T05:32:11;99934.50;;;22.39;71.33
35248;BME280;21380;52.194;20.520;2023-07-29T05:34:37;99938.84;;;22.40;71.15
35248;BME280;21380;52.194;20.520;2023-07-29T05:37:03;99936.22;;;22.40;71.10
35248;BME280;21380;52.194;20.520;2023-07-29T05:39:29;99924.91;;;22.35;71.25
35248;BME280;21380;52.194;20.520;2023-07-29T05:41:56;99942.34;;;22.41;71.24
35248;BME280;21380;52.194;20.520;2023-07-29T05:44:21;99952.84;;;22.41;71.36
35248;BME280;21380;52.194;20.520;2023-07-29T05:46:47;99956.38;;;22.41;71.59
35248;BME280;21380;52.194;20.520;2023-07-29T05:49:13;99938.94;;;22.32;71.50
35248;BME280;21380;52.194;20.520;2023-07-29T05:51:40;99932.91;;;22.27;71.50
35248;BME280;21380;52.194;20.520;2023-07-29T05:54:10;99951.97;;;22.42;71.65
35248;BME280;21380;52.194;20.520;2023-07-29T05:56:39;99951.97;;;22.42;71.75
35248;BME280;21380;52.194;20.520;2023-07-29T05:59:19;99945.03;;;22.38;71.76
35248;BME280;21380;52.194;20.520;2023-07-29T06:01:52;99957.19;;;22.43;71.83
35248;BME280;21380;52.194;20.520;2023-07-29T06:04:18;99962.44;;;22.43;71.72
35248;BME280;21380;52.194;20.520;2023-07-29T06:06:44;99964.19;;;22.44;71.75
35248;BME280;21380;52.194;20.520;2023-07-29T06:09:10;99957.28;;;22.37;72.24
35248;BME280;21380;52.194;20.520;2023-07-29T06:11:35;99958.06;;;22.44;72.26
35248;BME280;21380;52.194;20.520;2023-07-29T06:14:01;99969.44;;;22.44;71.93
35248;BME280;21380;52.194;20.520;2023-07-29T06:16:27;99961.59;;;22.43;72.02
35248;BME280;21380;52.194;20.520;2023-07-29T06:18:53;99963.34;;;22.41;72.39
35248;BME280;21380;52.194;20.520;2023-07-29T06:21:19;99973.81;;;22.45;72.41
35248;BME280;21380;52.194;20.520;2023-07-29T06:23:46;99973.03;;;22.40;72.21
35248;BME280;21380;52.194;20.520;2023-07-29T06:26:12;99969.56;;;22.35;71.96
35248;BME280;21380;52.194;20.520;2023-07-29T06:28:38;99995.69;;;22.47;71.76
35248;BME280;21380;52.194;20.520;2023-07-29T06:31:03;99981.69;;;22.45;71.87
35248;BME280;21380;52.194;20.520;2023-07-29T06:33:29;99977.38;;;22.41;71.69
35248;BME280;21380;52.194;20.520;2023-07-29T06:35:55;99992.16;;;22.48;71.52
35248;BME280;21380;52.194;20.520;2023-07-29T06:38:21;99991.25;;;22.49;71.73
35248;BME280;21380;52.194;20.520;2023-07-29T06:40:48;99984.31;;;22.45;71.60
35248;BME280;21380;52.194;20.520;2023-07-29T06:43:14;99980.84;;;22.45;71.32
35248;BME280;21380;52.194;20.520;2023-07-29T06:45:40;99990.38;;;22.50;71.41
35248;BME280;21380;52.194;20.520;2023-07-29T06:48:06;99990.41;;;22.49;71.51
35248;BME280;21380;52.194;20.520;2023-07-29T06:50:32;99996.50;;;22.49;71.31
35248;BME280;21380;52.194;20.520;2023-07-29T06:52:58;99997.31;;;22.55;71.41
35248;BME280;21380;52.194;20.520;2023-07-29T06:55:24;99990.38;;;22.50;71.47
35248;BME280;21380;52.194;20.520;2023-07-29T06:57:50;99994.78;;;22.50;71.54
35248;BME280;21380;52.194;20.520;2023-07-29T07:00:15;99986.00;;;22.49;71.44
35248;BME280;21380;52.194;20.520;2023-07-29T07:02:42;99988.59;;;22.53;71.54
35248;BME280;21380;52.194;20.520;2023-07-29T07:05:07;99976.38;;;22.48;71.67
35248;BME280;21380;52.194;20.520;2023-07-29T07:07:33;99989.38;;;22.58;71.50
35248;BME280;21380;52.194;20.520;2023-07-29T07:09:59;99988.53;;;22.56;71.64
35248;BME280;21380;52.194;20.520;2023-07-29T07:12:25;99987.69;;;22.55;71.81
35248;BME280;21380;52.194;20.520;2023-07-29T07:14:51;99979.75;;;22.57;71.45
35248;BME280;21380;52.194;20.520;2023-07-29T07:17:17;99971.97;;;22.50;71.44
35248;BME280;21380;52.194;20.520;2023-07-29T07:19:43;99978.81;;;22.61;71.70
35248;BME280;21380;52.194;20.520;2023-07-29T07:22:09;99973.59;;;22.59;71.78
35248;BME280;21380;52.194;20.520;2023-07-29T07:24:35;99976.19;;;22.61;71.97
35248;BME280;21380;52.194;20.520;2023-07-29T07:27:02;99958.81;;;22.54;71.67
35248;BME280;21380;52.194;20.520;2023-07-29T07:29:27;99971.81;;;22.61;71.46
35248;BME280;21380;52.194;20.520;2023-07-29T07:31:54;99969.31;;;22.54;71.55
35248;BME280;21380;52.194;20.520;2023-07-29T07:34:20;99962.34;;;22.51;71.61
35248;BME280;21380;52.194;20.520;2023-07-29T07:36:46;99961.41;;;22.55;71.30
35248;BME280;21380;52.194;20.520;2023-07-29T07:39:13;99977.03;;;22.63;71.39
35248;BME280;21380;52.194;20.520;2023-07-29T07:41:39;99975.25;;;22.63;71.28
35248;BME280;21380;52.194;20.520;2023-07-29T07:44:05;99975.25;;;22.63;71.60
35248;BME280;21380;52.194;20.520;2023-07-29T07:46:31;99963.97;;;22.58;71.54
35248;BME280;21380;52.194;20.520;2023-07-29T07:48:57;99974.44;;;22.61;71.49
35248;BME280;21380;52.194;20.520;2023-07-29T07:51:23;99958.81;;;22.54;71.46
35248;BME280;21380;52.194;20.520;2023-07-29T07:53:48;99964.84;;;22.57;71.15
35248;BME280;21380;52.194;20.520;2023-07-29T07:56:14;99978.78;;;22.64;71.14
35248;BME280;21380;52.194;20.520;2023-07-29T07:58:40;99969.25;;;22.57;71.51
35248;BME280;21380;52.194;20.520;2023-07-29T08:01:08;99978.81;;;22.62;71.22
35248;BME280;21380;52.194;20.520;2023-07-29T08:03:35;99975.28;;;22.62;71.41
35248;BME280;21380;52.194;20.520;2023-07-29T08:06:01;99970.94;;;22.61;71.30
35248;BME280;21380;52.194;20.520;2023-07-29T08:08:27;99960.44;;;22.59;71.41
35248;BME280;21380;52.194;20.520;2023-07-29T08:10:54;99966.56;;;22.61;71.32
35248;BME280;21380;52.194;20.520;2023-07-29T08:13:21;99948.28;;;22.54;71.46
35248;BME280;21380;52.194;20.520;2023-07-29T08:15:48;99959.50;;;22.63;71.13
35248;BME280;21380;52.194;20.520;2023-07-29T08:18:15;99962.19;;;22.60;71.30
35248;BME280;21380;52.194;20.520;2023-07-29T08:20:50;99963.06;;;22.59;71.41
35248;BME280;21380;52.194;20.520;2023-07-29T08:23:16;99962.97;;;22.65;71.21
35248;BME280;21380;52.194;20.520;2023-07-29T08:25:42;99962.97;;;22.65;71.47
35248;BME280;21380;52.194;20.520;2023-07-29T08:28:08;99966.50;;;22.64;71.34
35248;BME280;21380;52.194;20.520;2023-07-29T08:30:34;99947.34;;;22.58;71.54
35248;BME280;21380;52.194;20.520;2023-07-29T08:32:59;99961.22;;;22.64;71.42
35248;BME280;21380;52.194;20.520;2023-07-29T08:35:25;99963.81;;;22.66;71.24
35248;BME280;21380;52.194;20.520;2023-07-29T08:37:51;99952.53;;;22.62;71.08
35248;BME280;21380;52.194;20.520;2023-07-29T08:40:17;99963.81;;;22.66;70.96
35248;BME280;21380;52.194;20.520;2023-07-29T08:42:45;99953.38;;;22.63;71.17
35248;BME280;21380;52.194;20.520;2023-07-29T08:45:13;99958.56;;;22.67;71.21
35248;BME280;21380;52.194;20.520;2023-07-29T08:47:40;99958.56;;;22.66;71.26
35248;BME280;21380;52.194;20.520;2023-07-29T08:50:06;99953.84;;;22.32;75.80
35248;BME280;21380;52.194;20.520;2023-07-29T08:52:33;99956.50;;;22.30;75.09
35248;BME280;21380;52.194;20.520;2023-07-29T08:55:01;99940.91;;;22.18;78.45
35248;BME280;21380;52.194;20.520;2023-07-29T08:57:27;99958.16;;;22.36;77.47
35248;BME280;21380;52.194;20.520;2023-07-29T08:59:55;99950.16;;;22.45;76.12
35248;BME280;21380;52.194;20.520;2023-07-29T09:02:21;99923.13;;;22.35;75.07
35248;BME280;21380;52.194;20.520;2023-07-29T09:04:47;99942.22;;;22.50;74.64
35248;BME280;21380;52.194;20.520;2023-07-29T09:07:12;99949.06;;;22.57;74.29
35248;BME280;21380;52.194;20.520;2023-07-29T09:09:39;99956.97;;;22.59;73.92
35248;BME280;21380;52.194;20.520;2023-07-29T09:12:05;99955.16;;;22.61;74.04
35248;BME280;21380;52.194;20.520;2023-07-29T09:14:32;99952.53;;;22.62;73.47
35248;BME280;21380;52.194;20.520;2023-07-29T09:16:58;99942.88;;;22.63;73.34
35248;BME280;21380;52.194;20.520;2023-07-29T09:19:25;99941.97;;;22.64;73.25
35248;BME280;21380;52.194;20.520;2023-07-29T09:21:52;99941.94;;;22.65;73.17
35248;BME280;21380;52.194;20.520;2023-07-29T09:24:20;99941.94;;;22.65;73.37
35248;BME280;21380;52.194;20.520;2023-07-29T09:26:50;99941.13;;;22.62;73.10
35248;BME280;21380;52.194;20.520;2023-07-29T09:29:22;99943.69;;;22.66;72.84
35248;BME280;21380;52.194;20.520;2023-07-29T09:31:48;99940.16;;;22.66;73.14
35248;BME280;21380;52.194;20.520;2023-07-29T09:34:15;99933.16;;;22.66;73.09
35248;BME280;21380;52.194;20.520;2023-07-29T09:36:43;99940.16;;;22.67;72.92
35248;BME280;21380;52.194;20.520;2023-07-29T09:39:13;99928.75;;;22.67;72.84
35248;BME280;21380;52.194;20.520;2023-07-29T09:41:38;99908.88;;;22.54;72.79
35248;BME280;21380;52.194;20.520;2023-07-29T09:44:05;99921.84;;;22.63;72.63
35248;BME280;21380;52.194;20.520;2023-07-29T09:46:36;99923.53;;;22.65;73.16
35248;BME280;21380;52.194;20.520;2023-07-29T09:49:06;99925.22;;;22.71;74.13
35248;BME280;21380;52.194;20.520;2023-07-29T09:51:37;99925.25;;;22.68;73.01
35248;BME280;21380;52.194;20.520;2023-07-29T09:54:03;99923.63;;;22.59;72.57
35248;BME280;21380;52.194;20.520;2023-07-29T09:56:29;99898.47;;;22.44;73.22
35248;BME280;21380;52.194;20.520;2023-07-29T09:58:56;99916.66;;;22.60;73.00
35248;BME280;21380;52.194;20.520;2023-07-29T10:01:23;99912.28;;;22.57;72.64
35248;BME280;21380;52.194;20.520;2023-07-29T10:03:50;99923.59;;;22.61;72.84
35248;BME280;21380;52.194;20.520;2023-07-29T10:06:17;99900.97;;;22.54;72.66
35248;BME280;21380;52.194;20.520;2023-07-29T10:08:43;99914.78;;;22.65;72.33
35248;BME280;21380;52.194;20.520;2023-07-29T10:11:10;99912.16;;;22.65;72.33
35248;BME280;21380;52.194;20.520;2023-07-29T10:13:37;99914.78;;;22.65;72.31
35248;BME280;21380;52.194;20.520;2023-07-29T10:16:03;99895.66;;;22.57;72.23
35248;BME280;21380;52.194;20.520;2023-07-29T10:18:32;99913.06;;;22.64;72.59
35248;BME280;21380;52.194;20.520;2023-07-29T10:21:00;99907.75;;;22.65;72.34
35248;BME280;21380;52.194;20.520;2023-07-29T10:23:27;99911.25;;;22.66;72.11
35248;BME280;21380;52.194;20.520;2023-07-29T10:26:10;99901.66;;;22.65;72.51
35248;BME280;21380;52.194;20.520;2023-07-29T10:28:41;99899.03;;;22.65;72.24
35248;BME280;21380;52.194;20.520;2023-07-29T10:31:11;99887.72;;;22.58;72.42
35248;BME280;21380;52.194;20.520;2023-07-29T10:33:37;99897.31;;;22.62;71.92
35248;BME280;21380;52.194;20.520;2023-07-29T10:36:04;99891.13;;;22.63;72.20
35248;BME280;21380;52.194;20.520;2023-07-29T10:38:31;99881.59;;;22.59;71.87
35248;BME280;21380;52.194;20.520;2023-07-29T10:40:57;99887.59;;;22.66;72.40
35248;BME280;21380;52.194;20.520;2023-07-29T10:43:34;99896.34;;;22.66;71.84
35248;BME280;21380;52.194;20.520;2023-07-29T10:46:19;99893.72;;;22.66;72.01
35248;BME280;21380;52.194;20.520;2023-07-29T10:48:54;99891.97;;;22.67;72.25
35248;BME280;21380;52.194;20.520;2023-07-29T10:51:27;99898.09;;;22.67;72.00
35248;BME280;21380;52.194;20.520;2023-07-29T10:54:00;99888.44;;;22.68;71.90
35248;BME280;21380;52.194;20.520;2023-07-29T10:56:33;99886.69;;;22.69;72.04
35248;BME280;21380;52.194;20.520;2023-07-29T10:59:23;99887.56;;;22.69;72.11
35248;BME280;21380;52.194;20.520;2023-07-29T11:01:57;99893.66;;;22.70;71.81
35248;BME280;21380;52.194;20.520;2023-07-29T11:04:25;99885.78;;;22.70;72.20
35248;BME280;21380;52.194;20.520;2023-07-29T11:07:25;99881.41;;;22.70;71.88
35248;BME280;21380;52.194;20.520;2023-07-29T11:09:59;99871.78;;;22.69;72.13
35248;BME280;21380;52.194;20.520;2023-07-29T11:12:51;99877.88;;;22.71;72.17
35248;BME280;21380;52.194;20.520;2023-07-29T11:15:22;99870.88;;;22.70;72.19
35248;BME280;21380;52.194;20.520;2023-07-29T11:17:53;99869.09;;;22.71;71.75
35248;BME280;21380;52.194;20.520;2023-07-29T11:20:24;99863.84;;;22.71;72.07
35248;BME280;21380;52.194;20.520;2023-07-29T11:22:50;99862.13;;;22.71;72.12
35248;BME280;21380;52.194;20.520;2023-07-29T11:25:18;99841.19;;;22.65;71.77
35248;BME280;21380;52.194;20.520;2023-07-29T11:27:44;99850.72;;;22.71;72.06
35248;BME280;21380;52.194;20.520;2023-07-29T11:30:12;99853.38;;;22.69;71.82
35248;BME280;21380;52.194;20.520;2023-07-29T11:32:40;99846.31;;;22.73;71.94
35248;BME280;21380;52.194;20.520;2023-07-29T11:35:11;99843.72;;;22.70;71.97
35248;BME280;21380;52.194;20.520;2023-07-29T11:37:38;99845.44;;;22.71;71.74
35248;BME280;21380;52.194;20.520;2023-07-29T11:42:33;99840.16;;;22.72;71.51
35248;BME280;21380;52.194;20.520;2023-07-29T11:45:00;99837.56;;;22.71;71.59
35248;BME280;21380;52.194;20.520;2023-07-29T11:47:26;99841.06;;;22.71;71.58
35248;BME280;21380;52.194;20.520;2023-07-29T11:49:53;99827.94;;;22.71;71.37
35248;BME280;21380;52.194;20.520;2023-07-29T11:52:19;99825.34;;;22.68;71.63
35248;BME280;21380;52.194;20.520;2023-07-29T11:54:47;99830.56;;;22.71;71.42
35248;BME280;21380;52.194;20.520;2023-07-29T11:57:13;99829.63;;;22.72;71.82
35248;BME280;21380;52.194;20.520;2023-07-29T11:59:41;99820.97;;;22.67;71.41
35248;BME280;21380;52.194;20.520;2023-07-29T12:02:13;99822.69;;;22.70;71.40
35248;BME280;21380;52.194;20.520;2023-07-29T12:04:41;99821.81;;;22.69;71.70
35248;BME280;21380;52.194;20.520;2023-07-29T12:07:07;99810.50;;;22.65;71.73
35248;BME280;21380;52.194;20.520;2023-07-29T12:09:35;99820.97;;;22.69;71.47
35248;BME280;21380;52.194;20.520;2023-07-29T12:12:02;99817.38;;;22.73;71.41
35248;BME280;21380;52.194;20.520;2023-07-29T12:14:29;99810.34;;;22.73;71.49
35248;BME280;21380;52.194;20.520;2023-07-29T12:16:55;99808.59;;;22.72;71.54
35248;BME280;21380;52.194;20.520;2023-07-29T12:19:21;99799.81;;;22.73;71.34
35248;BME280;21380;52.194;20.520;2023-07-29T12:21:50;99799.81;;;22.73;71.61
35248;BME280;21380;52.194;20.520;2023-07-29T12:24:16;99775.56;;;22.60;71.42
35248;BME280;21380;52.194;20.520;2023-07-29T12:26:42;99805.97;;;22.74;71.72
35248;BME280;21380;52.194;20.520;2023-07-29T12:29:12;99779.81;;;22.66;71.42
35248;BME280;21380;52.194;20.520;2023-07-29T12:31:38;99789.44;;;22.69;71.58
35248;BME280;21380;52.194;20.520;2023-07-29T12:34:04;99787.69;;;22.67;71.67
35248;BME280;21380;52.194;20.520;2023-07-29T12:36:49;99795.41;;;22.75;71.58
35248;BME280;21380;52.194;20.520;2023-07-29T12:39:21;99787.53;;;22.75;71.55
35248;BME280;21380;52.194;20.520;2023-07-29T12:41:48;99785.75;;;22.76;71.33
35248;BME280;21380;52.194;20.520;2023-07-29T12:44:16;99792.78;;;22.75;71.39
35248;BME280;21380;52.194;20.520;2023-07-29T12:46:42;99762.09;;;22.77;72.89
35248;BME280;21380;52.194;20.520;2023-07-29T12:49:09;99775.84;;;23.33;75.88
35248;BME280;21380;52.194;20.520;2023-07-29T12:51:35;99769.28;;;23.51;74.31
35248;BME280;21380;52.194;20.520;2023-07-29T12:54:02;99769.38;;;23.84;71.66
35248;BME280;21380;52.194;20.520;2023-07-29T12:56:28;99774.31;;;23.99;71.39
35248;BME280;21380;52.194;20.520;2023-07-29T12:58:57;99771.72;;;23.96;70.76
35248;BME280;21380;52.194;20.520;2023-07-29T13:01:26;99744.59;;;23.94;68.48